Time;durP1;ratioP1;P1;durP2;ratioP2;P2;SDS_P1;SDS_P2;PMS_P1;PMS_P2;Temp;Humidity;BMP_temperature;BMP_pressure;BME280_temperature;BME280_humidity;BME280_pressure;Samples;Min_cycle;Max_cycle;Signal;HPM_P1;HPM_P2
2022/08/15 00:00:45;;;;;;;6.70;6.00;;;;;;;27.19;47.09;100439.28;5077935;28;20036;-83
2022/08/15 00:03:27;;;;;;;7.35;6.18;;;;;;;27.18;46.97;100431.47;5094604;28;20024;-83
2022/08/15 00:05:54;;;;;;;7.60;5.80;;;;;;;27.20;46.68;100429.59;5094731;28;20472;-82
2022/08/15 00:08:20;;;;;;;6.90;6.20;;;;;;;27.20;46.83;100425.16;5094548;28;20081;-82
2022/08/15 00:10:47;;;;;;;6.75;6.13;;;;;;;27.22;46.72;100433.00;5095531;28;20472;-82
2022/08/15 00:13:20;;;;;;;6.95;6.25;;;;;;;27.21;46.73;100428.66;5094637;28;20028;-81
2022/08/15 00:15:48;;;;;;;6.40;5.80;;;;;;;27.22;46.65;100428.59;5094597;28;20223;-83
2022/08/15 00:18:15;;;;;;;6.72;6.10;;;;;;;27.24;46.66;100425.84;5094432;28;20043;-82
2022/08/15 00:20:40;;;;;;;6.85;6.15;;;;;;;27.23;46.49;100425.00;5095296;28;20110;-81
2022/08/15 00:23:10;;;;;;;7.28;6.57;;;;;;;27.23;46.77;100429.44;5060607;28;20457;-81
2022/08/15 00:25:37;;;;;;;6.95;6.20;;;;;;;27.23;46.44;100419.72;5095190;28;20024;-82
2022/08/15 00:28:07;;;;;;;6.63;6.03;;;;;;;27.24;46.72;100412.63;5095465;28;20016;-82
2022/08/15 00:30:35;;;;;;;7.75;6.32;;;;;;;27.24;46.53;100415.28;5077244;28;20063;-82
2022/08/15 00:33:00;;;;;;;6.78;6.13;;;;;;;27.25;46.45;100411.72;5093919;28;20369;-82
2022/08/15 00:35:39;;;;;;;7.15;6.45;;;;;;;27.25;46.69;100415.19;5077437;28;20027;-82
2022/08/15 00:38:11;;;;;;;7.00;6.30;;;;;;;27.27;46.71;100409.84;5064031;28;20471;-82
2022/08/15 00:43:23;;;;;;;6.63;6.00;;;;;;;27.27;46.41;100407.19;5095356;28;20559;-83
2022/08/15 00:45:51;;;;;;;7.05;6.25;;;;;;;27.26;47.21;100405.47;5093609;28;20372;-82
2022/08/15 00:51:01;;;;;;;7.95;6.82;;;;;;;27.27;46.69;100401.91;5094157;28;20093;-82
2022/08/15 00:53:27;;;;;;;6.65;6.05;;;;;;;27.26;46.99;100395.78;5076910;28;20442;-83
2022/08/15 00:55:53;;;;;;;7.13;6.40;;;;;;;27.26;46.98;100397.56;5095085;28;20027;-83
2022/08/15 00:58:20;;;;;;;7.28;6.57;;;;;;;27.27;47.04;100386.06;5093592;28;20027;-83
2022/08/15 01:00:47;;;;;;;6.85;6.25;;;;;;;27.26;46.65;100389.63;5093361;28;20097;-82
2022/08/15 01:03:18;;;;;;;7.00;6.40;;;;;;;27.28;46.88;100391.28;5093448;28;20395;-82
2022/08/15 01:05:46;;;;;;;6.93;6.32;;;;;;;27.28;46.76;100393.03;5093304;28;20022;-82
2022/08/15 01:08:16;;;;;;;7.38;6.38;;;;;;;27.27;47.12;100383.44;5093269;28;20023;-82
2022/08/15 01:10:43;;;;;;;6.95;6.35;;;;;;;27.26;46.84;100384.34;5093299;28;20031;-82
2022/08/15 01:13:09;;;;;;;7.63;6.88;;;;;;;27.24;46.71;100379.19;5093231;28;20114;-84
2022/08/15 01:15:36;;;;;;;7.47;6.57;;;;;;;27.26;46.78;100372.00;5076799;28;20056;-83
2022/08/15 01:18:01;;;;;;;6.22;5.63;;;;;;;27.27;46.81;100375.50;5093373;28;20032;-83
2022/08/15 01:20:30;;;;;;;7.40;6.68;;;;;;;27.24;47.05;100373.91;5076555;28;20034;-83
2022/08/15 01:23:13;;;;;;;6.90;6.28;;;;;;;27.21;46.99;100365.25;5092910;28;20044;-83
2022/08/15 01:25:44;;;;;;;7.10;6.50;;;;;;;27.20;47.39;100367.03;5092870;28;20047;-83
2022/08/15 01:28:21;;;;;;;7.00;6.30;;;;;;;27.21;47.16;100359.97;5092975;28;20077;-83
2022/08/15 01:30:58;;;;;;;6.85;6.15;;;;;;;27.20;47.18;100360.91;5092962;28;20082;-83
2022/08/15 01:33:25;;;;;;;6.38;5.85;;;;;;;27.19;47.30;100364.47;5092907;28;20024;-82
2022/08/15 01:35:52;;;;;;;6.50;5.90;;;;;;;27.19;47.50;100367.13;5092892;28;20026;-83
2022/08/15 01:38:30;;;;;;;7.20;6.50;;;;;;;27.19;47.20;100367.13;5092758;28;20020;-83
2022/08/15 01:41:05;;;;;;;7.00;6.40;;;;;;;27.18;47.30;100360.16;5092603;28;20043;-83
2022/08/15 01:43:37;;;;;;;7.80;6.50;;;;;;;27.19;47.27;100362.69;5092883;28;20020;-83
2022/08/15 01:46:07;;;;;;;8.40;6.70;;;;;;;27.17;47.41;100361.91;5092842;28;20016;-82
2022/08/15 01:48:49;;;;;;;7.15;6.45;;;;;;;27.17;47.17;100367.19;5094042;28;20536;-83
2022/08/15 01:51:16;;;;;;;7.27;6.13;;;;;;;27.18;47.36;100357.50;5092511;28;20244;-83
2022/08/15 01:53:55;;;;;;;8.43;6.68;;;;;;;27.16;47.28;100354.94;5092942;28;20032;-83
2022/08/15 01:56:28;;;;;;;9.63;6.63;;;;;;;27.19;47.29;100361.84;5092618;28;20115;-83
2022/08/15 01:58:54;;;;;;;6.88;6.28;;;;;;;27.18;47.49;100354.88;5092713;28;20363;-82
2022/08/15 02:01:35;;;;;;;6.82;6.22;;;;;;;27.18;47.13;100358.34;5075805;28;20016;-83
2022/08/15 02:04:03;;;;;;;6.78;6.18;;;;;;;27.19;47.17;100360.03;5092673;28;20028;-83
2022/08/15 02:06:31;;;;;;;6.50;5.95;;;;;;;27.22;47.52;100375.78;5075716;28;20419;-82
2022/08/15 02:08:57;;;;;;;7.35;6.65;;;;;;;27.22;47.36;100362.56;5076043;28;20550;-83
2022/08/15 02:11:25;;;;;;;7.88;7.25;;;;;;;27.23;47.45;100369.53;5075581;28;20107;-83
2022/08/15 02:13:54;;;;;;;7.65;6.93;;;;;;;27.23;46.97;100372.16;5092220;28;20024;-82
2022/08/15 02:16:23;;;;;;;7.25;6.65;;;;;;;27.25;47.16;100356.25;5092285;28;20019;-83
2022/08/15 02:18:49;;;;;;;7.63;6.93;;;;;;;27.24;47.19;100367.72;5092259;28;20057;-82
2022/08/15 02:21:14;;;;;;;7.70;6.90;;;;;;;27.21;47.37;100374.06;5092140;28;20055;-82
2022/08/15 02:23:40;;;;;;;7.30;6.53;;;;;;;27.22;47.25;100362.56;5075549;28;20085;-82
2022/08/15 02:26:08;;;;;;;8.70;6.90;;;;;;;27.21;47.09;100362.59;5075255;28;20124;-83
2022/08/15 02:28:34;;;;;;;6.75;6.15;;;;;;;27.23;46.94;100366.88;5092380;28;20031;-82
2022/08/15 02:30:59;;;;;;;7.05;6.45;;;;;;;27.22;47.29;100366.97;5092063;28;20429;-83
2022/08/15 02:33:27;;;;;;;8.35;6.95;;;;;;;27.21;47.09;100355.56;5093696;28;20031;-83
2022/08/15 02:35:52;;;;;;;7.13;6.35;;;;;;;27.21;47.22;100357.31;5092084;28;20559;-82
2022/08/15 02:38:18;;;;;;;7.10;6.50;;;;;;;27.21;47.22;100354.69;5075266;28;20115;-83
2022/08/15 02:40:43;;;;;;;7.47;6.88;;;;;;;27.20;47.14;100347.72;5092106;28;20046;-82
2022/08/15 02:43:12;;;;;;;7.00;6.40;;;;;;;27.19;46.94;100343.34;5092080;28;20055;-82
2022/08/15 02:45:38;;;;;;;8.80;6.90;;;;;;;27.18;47.14;100341.66;5092041;28;20472;-82
2022/08/15 02:48:08;;;;;;;7.47;6.78;;;;;;;27.18;47.13;100339.88;5075391;28;20028;-81
2022/08/15 02:50:35;;;;;;;7.28;6.57;;;;;;;27.19;47.31;100333.63;5091868;28;20479;-82
2022/08/15 02:53:13;;;;;;;7.03;6.43;;;;;;;27.20;46.96;100338.00;5091888;28;20429;-82
2022/08/15 02:55:41;;;;;;;6.88;6.28;;;;;;;27.21;46.93;100350.28;5095928;28;20027;-82
2022/08/15 02:58:09;;;;;;;7.28;6.57;;;;;;;27.21;46.81;100345.00;5095879;28;20020;-82
2022/08/15 03:00:35;;;;;;;7.80;7.10;;;;;;;27.22;46.93;100337.91;5097048;28;20067;-82
2022/08/15 03:03:06;;;;;;;7.60;6.90;;;;;;;27.20;46.99;100338.00;5078743;28;20073;-82
2022/08/15 03:05:33;;;;;;;8.10;6.63;;;;;;;27.19;47.01;100341.56;5095662;28;20466;-82
2022/08/15 03:07:59;;;;;;;7.05;6.47;;;;;;;27.19;47.22;100336.28;5095642;28;20395;-83
2022/08/15 03:10:25;;;;;;;7.10;6.40;;;;;;;27.21;46.56;100345.00;5062156;28;20062;-83
2022/08/15 03:13:03;;;;;;;7.20;6.50;;;;;;;27.22;47.08;100348.47;5095819;28;20059;-82
2022/08/15 03:15:32;;;;;;;7.30;6.60;;;;;;;27.22;46.98;100337.91;5095759;28;20078;-81
2022/08/15 03:17:59;;;;;;;7.78;6.75;;;;;;;27.21;46.61;100338.84;5095506;28;20463;-83
2022/08/15 03:20:25;;;;;;;7.25;6.65;;;;;;;27.21;46.93;100342.34;5078748;28;20032;-83
2022/08/15 03:22:53;;;;;;;7.70;6.80;;;;;;;27.23;47.08;100343.13;5096585;28;20101;-82
2022/08/15 03:25:21;;;;;;;6.88;6.28;;;;;;;27.23;46.74;100337.00;5078850;28;20058;-82
2022/08/15 03:27:46;;;;;;;7.68;6.50;;;;;;;27.22;46.74;100343.19;5078452;28;20468;-82
2022/08/15 03:30:13;;;;;;;7.78;7.03;;;;;;;27.20;46.94;100340.63;5061757;28;20027;-82
2022/08/15 03:32:46;;;;;;;7.78;6.97;;;;;;;27.19;46.82;100335.44;5095415;28;20027;-82
2022/08/15 03:35:12;;;;;;;7.65;6.95;;;;;;;27.17;46.71;100350.50;5095302;28;20032;-83
2022/08/15 03:37:38;;;;;;;7.90;7.10;;;;;;;27.18;46.77;100347.78;5095187;28;20028;-82
2022/08/15 03:40:05;;;;;;;7.25;6.57;;;;;;;27.21;46.73;100352.91;5095229;28;20028;-83
2022/08/15 03:42:32;;;;;;;7.53;6.93;;;;;;;27.22;46.57;100344.06;5095089;28;20114;-82
2022/08/15 03:44:58;;;;;;;7.30;6.60;;;;;;;27.23;46.66;100339.63;5094957;28;20020;-82
2022/08/15 03:47:23;;;;;;;7.95;7.15;;;;;;;27.22;46.55;100333.50;5061634;28;20032;-83
2022/08/15 03:49:49;;;;;;;7.10;6.50;;;;;;;27.21;46.73;100322.97;5078102;28;20036;-83
2022/08/15 03:52:15;;;;;;;7.95;7.18;;;;;;;27.21;46.58;100320.34;5078108;28;20120;-83
2022/08/15 03:54:44;;;;;;;7.15;6.55;;;;;;;27.21;46.35;100326.50;5095037;28;20067;-83
2022/08/15 03:57:09;;;;;;;7.35;6.68;;;;;;;27.21;46.47;100325.63;5078463;28;20036;-80
2022/08/15 03:59:35;;;;;;;7.18;6.55;;;;;;;27.20;46.81;100332.72;5061205;28;20398;-80
2022/08/15 04:02:01;;;;;;;7.47;6.70;;;;;;;27.21;46.37;100330.91;5077691;28;20032;-81
2022/08/15 04:04:26;;;;;;;7.32;6.63;;;;;;;27.20;46.56;100332.72;5077455;28;20024;-80
2022/08/15 04:06:52;;;;;;;7.82;6.72;;;;;;;27.18;46.66;100318.75;5094572;28;20035;-80
2022/08/15 04:09:18;;;;;;;7.60;6.80;;;;;;;27.19;46.77;100317.78;5077633;28;20024;-80
2022/08/15 04:11:44;;;;;;;7.95;7.15;;;;;;;27.19;46.77;100315.13;5094450;28;20472;-81
2022/08/15 04:14:10;;;;;;;9.15;6.43;;;;;;;27.19;46.66;100311.66;5094457;28;20051;-81
2022/08/15 04:16:36;;;;;;;7.18;6.57;;;;;;;27.19;46.41;100317.78;5094735;28;20036;-81
2022/08/15 04:19:01;;;;;;;7.47;6.78;;;;;;;27.19;46.52;100333.63;5060844;28;20024;-80
2022/08/15 04:21:27;;;;;;;8.55;7.03;;;;;;;27.21;46.54;100331.78;5096018;28;20138;-80
2022/08/15 04:23:52;;;;;;;8.07;7.20;;;;;;;27.18;46.94;100336.38;5077822;28;20032;-80
2022/08/15 04:26:18;;;;;;;7.78;7.07;;;;;;;27.18;46.83;100331.94;5078103;28;20048;-83
2022/08/15 04:28:44;;;;;;;7.40;6.80;;;;;;;27.21;46.78;100331.78;5067102;28;20051;-80
2022/08/15 04:31:14;;;;;;;7.40;6.70;;;;;;;27.29;46.29;100331.34;5106795;28;20372;-83
2022/08/15 04:33:39;;;;;;;7.00;6.40;;;;;;;27.32;46.19;100332.97;5108585;28;20023;-87
2022/08/15 04:36:09;;;;;;;7.78;6.68;;;;;;;27.34;45.99;100333.72;5090186;28;20039;-87
2022/08/15 04:38:36;;;;;;;6.85;6.25;;;;;;;27.35;45.94;100322.19;5110951;28;20028;-87
2022/08/15 04:41:03;;;;;;;7.03;6.38;;;;;;;27.36;46.06;100326.56;5097982;28;20032;-82
2022/08/15 04:43:31;;;;;;;7.03;6.10;;;;;;;27.37;45.91;100322.97;5094083;28;20487;-82
2022/08/15 04:45:56;;;;;;;6.50;6.00;;;;;;;27.38;46.07;100336.09;5094028;28;20032;-81
2022/08/15 04:48:22;;;;;;;7.43;6.78;;;;;;;27.38;46.35;100345.81;5095097;28;20081;-80
2022/08/15 04:50:49;;;;;;;6.95;6.20;;;;;;;27.38;46.36;100346.66;5060235;28;20127;-82
2022/08/15 04:53:17;;;;;;;7.47;6.13;;;;;;;27.41;46.09;100353.56;5093742;28;20024;-84
2022/08/15 04:55:44;;;;;;;6.65;6.13;;;;;;;27.41;46.36;100359.69;5093749;28;20383;-83
2022/08/15 04:58:12;;;;;;;7.07;6.38;;;;;;;27.43;45.94;100363.09;5076733;28;20024;-82
2022/08/15 05:00:40;;;;;;;7.30;6.18;;;;;;;27.45;46.30;100360.34;5077124;28;20122;-82
2022/08/15 05:03:16;;;;;;;6.53;5.93;;;;;;;27.43;46.27;100344.59;5076974;28;20444;-84
2022/08/15 05:05:44;;;;;;;8.05;6.18;;;;;;;27.45;46.70;100350.63;5093521;28;20016;-83
2022/08/15 05:08:11;;;;;;;6.82;6.00;;;;;;;27.48;46.26;100336.38;5093666;28;20027;-85
2022/08/15 05:10:39;;;;;;;6.47;5.88;;;;;;;27.46;46.23;100333.84;5093581;28;20031;-84
2022/08/15 05:13:17;;;;;;;8.68;6.05;;;;;;;27.51;46.49;100333.56;5076948;28;20024;-85
2022/08/15 05:15:44;;;;;;;9.38;5.97;;;;;;;27.52;46.31;100329.13;5093181;28;20448;-85
2022/08/15 05:18:10;;;;;;;8.77;6.32;;;;;;;27.48;46.58;100339.91;5093047;28;20019;-85
2022/08/15 05:20:35;;;;;;;11.45;7.13;;;;;;;27.48;46.53;100329.34;5077040;28;20028;-86
2022/08/15 05:23:05;;;;;;;8.68;6.50;;;;;;;27.49;46.75;100328.38;5093091;28;20056;-85
2022/08/15 05:25:33;;;;;;;11.90;6.53;;;;;;;27.51;46.64;100335.38;5093429;28;20034;-85
2022/08/15 05:28:00;;;;;;;8.73;6.00;;;;;;;27.50;46.88;100339.78;5093165;28;20073;-86
2022/08/15 05:30:26;;;;;;;11.05;6.05;;;;;;;27.49;46.59;100346.03;5093067;28;20073;-83
2022/08/15 05:33:01;;;;;;;9.75;6.20;;;;;;;27.49;46.63;100353.97;5092940;28;20027;-85
2022/08/15 05:35:26;;;;;;;7.45;5.78;;;;;;;27.48;46.67;100349.59;5092977;28;20115;-85
2022/08/15 05:37:53;;;;;;;9.45;5.65;;;;;;;27.47;46.70;100356.69;5093087;28;20068;-85
2022/08/15 05:40:18;;;;;;;10.35;5.45;;;;;;;27.47;46.84;100355.84;5059639;28;20046;-85
2022/08/15 05:43:11;;;;;;;7.25;5.65;;;;;;;27.48;46.86;100354.88;5094442;28;20027;-86
2022/08/15 05:45:55;;;;;;;7.07;5.07;;;;;;;27.47;46.69;100351.41;5084609;28;20032;-85
2022/08/15 05:48:29;;;;;;;6.80;4.72;;;;;;;27.47;46.84;100348.75;5092880;28;20122;-86
2022/08/15 05:51:13;;;;;;;8.23;4.55;;;;;;;27.43;46.81;100344.59;5093902;28;20495;-83
2022/08/15 05:53:47;;;;;;;7.85;4.20;;;;;;;26.84;47.00;100344.41;5094060;28;20055;-84
2022/08/15 05:56:37;;;;;;;10.25;4.57;;;;;;;26.27;47.39;100359.84;5094087;28;20024;-81
2022/08/15 05:59:09;;;;;;;8.63;4.57;;;;;;;25.83;48.63;100363.03;5092672;28;20073;-83
2022/08/15 06:01:41;;;;;;;8.32;5.07;;;;;;;25.50;49.87;100369.09;5093844;28;20023;-83
2022/08/15 06:04:09;;;;;;;7.97;4.20;;;;;;;25.56;49.60;100374.03;5094212;28;20031;-85
2022/08/15 06:06:38;;;;;;;9.05;4.47;;;;;;;25.32;49.71;100384.00;5092620;28;20439;-86
2022/08/15 06:09:22;;;;;;;22.15;7.57;;;;;;;25.40;49.45;100381.84;5092491;28;20026;-83
2022/08/15 06:11:53;;;;;;;18.08;6.00;;;;;;;25.55;48.91;100376.75;5092213;28;20020;-81
2022/08/15 06:14:27;;;;;;;10.45;5.00;;;;;;;25.55;48.74;100379.38;5092458;28;20038;-82
2022/08/15 06:16:58;;;;;;;9.52;4.18;;;;;;;25.72;48.57;100375.88;5092304;28;20030;-84
2022/08/15 06:19:36;;;;;;;7.22;4.00;;;;;;;26.24;47.61;100362.66;5092895;28;20032;-85
2022/08/15 06:22:26;;;;;;;9.98;3.25;;;;;;;26.30;47.10;100366.75;5093565;28;20048;-85
2022/08/15 06:25:13;;;;;;;5.90;3.55;;;;;;;26.22;47.14;100375.94;5092662;28;20365;-84
2022/08/15 06:27:46;;;;;;;6.40;3.33;;;;;;;26.95;44.96;100375.50;5093453;28;20429;-82
2022/08/15 06:30:19;;;;;;;6.63;3.08;;;;;;;27.45;43.62;100377.06;5096767;28;20027;-83
2022/08/15 06:33:06;;;;;;;6.82;3.00;;;;;;;27.66;42.96;100380.25;5096567;28;20035;-83
2022/08/15 06:35:39;;;;;;;4.93;2.70;;;;;;;28.14;40.99;100385.34;5096312;28;20028;-81
2022/08/15 06:38:14;;;;;;;7.45;2.60;;;;;;;28.37;40.74;100375.13;5097836;28;20482;-84
2022/08/15 06:40:45;;;;;;;9.27;2.70;;;;;;;29.20;37.66;100370.75;5096342;28;20045;-80
2022/08/15 06:43:13;;;;;;;4.30;2.40;;;;;;;30.06;36.24;100375.53;5096066;28;20380;-82
2022/08/15 06:45:41;;;;;;;7.07;2.58;;;;;;;30.77;34.57;100367.91;5063246;28;20048;-81
2022/08/15 06:48:17;;;;;;;6.18;2.60;;;;;;;29.16;37.61;100371.03;5097515;28;20039;-82
2022/08/15 06:50:47;;;;;;;9.32;2.70;;;;;;;29.92;36.43;100365.91;5096306;28;20119;-82
2022/08/15 06:53:22;;;;;;;8.57;2.80;;;;;;;28.53;38.84;100373.25;5095992;28;20024;-80
2022/08/15 06:56:00;;;;;;;6.88;2.92;;;;;;;30.66;35.15;100366.03;5096056;28;20027;-81
2022/08/15 06:59:02;;;;;;;6.25;2.83;;;;;;;32.25;31.70;100365.63;5095728;28;20027;-81
2022/08/15 07:01:51;;;;;;;6.97;2.63;;;;;;;31.78;32.10;100363.00;5093539;28;20032;-81
2022/08/15 07:04:29;;;;;;;5.30;2.90;;;;;;;31.47;32.98;100353.91;5095898;28;20118;-81
2022/08/15 07:06:58;;;;;;;9.13;3.30;;;;;;;28.73;38.41;100356.09;5095754;28;20031;-82
2022/08/15 07:10:00;;;;;;;8.68;3.25;;;;;;;27.47;41.53;100374.34;5095750;28;20020;-82
2022/08/15 07:12:40;;;;;;;9.23;3.30;;;;;;;26.87;42.73;100370.66;5096162;28;20024;-82
2022/08/15 07:15:24;;;;;;;7.10;3.38;;;;;;;26.94;42.74;100375.59;5095671;28;20024;-82
2022/08/15 07:17:55;;;;;;;8.65;3.38;;;;;;;27.18;41.81;100376.00;5095559;28;20028;-81
2022/08/15 07:20:20;;;;;;;9.98;3.63;;;;;;;27.28;41.74;100375.41;5095758;28;20116;-82
2022/08/15 07:22:45;;;;;;;8.38;3.40;;;;;;;27.74;40.94;100369.19;5078220;28;20478;-81
2022/08/15 07:25:21;;;;;;;7.50;3.30;;;;;;;27.39;41.64;100372.13;5078639;28;20082;-81
2022/08/15 07:28:02;;;;;;;7.68;3.45;;;;;;;27.29;41.96;100386.84;5095269;28;20023;-81
2022/08/15 07:30:44;;;;;;;8.13;3.65;;;;;;;28.45;39.43;100384.28;5096599;28;20048;-81
2022/08/15 07:33:28;;;;;;;8.50;3.65;;;;;;;29.67;36.81;100384.41;5095504;28;20028;-81
2022/08/15 07:36:26;;;;;;;7.85;3.65;;;;;;;30.98;34.37;100378.78;5095419;28;20048;-83
2022/08/15 07:38:52;;;;;;;6.97;3.42;;;;;;;31.56;33.44;100378.94;5093860;28;20035;-82
2022/08/15 07:41:23;;;;;;;6.20;3.63;;;;;;;31.85;32.75;100366.03;5096272;28;20069;-82
2022/08/15 07:43:59;;;;;;;6.70;3.65;;;;;;;31.86;32.82;100365.09;5095114;28;20369;-83
2022/08/15 07:46:55;;;;;;;9.88;3.80;;;;;;;32.05;32.75;100361.84;5095066;28;20027;-82
2022/08/15 07:49:25;;;;;;;6.18;3.53;;;;;;;31.15;34.16;100361.59;5094777;28;20028;-81
2022/08/15 07:52:23;;;;;;;9.23;3.60;;;;;;;29.27;37.11;100371.19;5094752;28;20051;-83
2022/08/15 07:54:52;;;;;;;8.57;4.07;;;;;;;30.23;35.34;100354.94;5095092;28;20484;-82
2022/08/15 07:57:28;;;;;;;7.18;3.55;;;;;;;30.45;35.68;100357.78;5094828;28;20410;-83
2022/08/15 08:00:12;;;;;;;7.97;3.10;;;;;;;29.43;36.76;100355.09;5094872;28;20439;-83
2022/08/15 08:02:51;;;;;;;9.20;3.78;;;;;;;28.92;37.37;100359.25;5094958;28;20043;-84
2022/08/15 08:05:18;;;;;;;5.30;3.10;;;;;;;30.46;35.35;100356.81;5096020;28;20506;-84
2022/08/15 08:07:48;;;;;;;5.65;3.13;;;;;;;30.64;34.10;100352.00;5078036;28;20119;-84
2022/08/15 08:10:18;;;;;;;7.43;3.15;;;;;;;30.62;33.96;100356.59;5094441;28;20353;-82
2022/08/15 08:12:52;;;;;;;7.57;3.20;;;;;;;29.05;35.74;100356.66;5094906;28;20056;-83
2022/08/15 08:15:32;;;;;;;7.00;3.50;;;;;;;29.42;35.46;100353.38;5094527;28;20070;-83
2022/08/15 08:18:05;;;;;;;8.63;3.05;;;;;;;28.99;36.37;100356.22;5096261;28;20020;-83
2022/08/15 08:20:50;;;;;;;5.32;3.10;;;;;;;28.47;37.76;100358.56;5095869;28;20028;-84
2022/08/15 08:23:24;;;;;;;4.07;3.28;;;;;;;28.19;38.06;100356.81;5094383;28;20119;-82
2022/08/15 08:26:07;;;;;;;7.20;3.10;;;;;;;28.22;37.83;100355.75;5094354;28;20111;-83
2022/08/15 08:28:38;;;;;;;4.63;3.47;;;;;;;27.91;38.51;100352.34;5094428;28;20034;-84
2022/08/15 08:31:26;;;;;;;5.60;3.38;;;;;;;27.76;37.92;100362.03;5094711;28;20460;-84
2022/08/15 08:34:05;;;;;;;6.78;3.33;;;;;;;27.73;38.73;100359.56;5095665;28;20031;-83
2022/08/15 08:37:02;;;;;;;3.97;3.25;;;;;;;27.54;38.22;100364.25;5094585;28;20035;-84
2022/08/15 08:42:59;;;;;;;5.95;3.25;;;;;;;27.36;38.57;100361.75;5095716;28;20072;-82
2022/08/15 08:45:41;;;;;;;5.93;3.38;;;;;;;27.42;38.88;100360.56;5094089;28;20111;-81
2022/08/15 08:48:26;;;;;;;9.93;3.88;;;;;;;27.41;39.00;100364.13;5093878;28;20096;-82
2022/08/15 08:51:21;;;;;;;5.38;3.67;;;;;;;27.18;39.06;100366.28;5093130;28;20032;-82
2022/08/15 08:54:14;;;;;;;5.68;3.60;;;;;;;27.39;39.03;100366.00;5069730;28;20070;-78
2022/08/15 08:56:45;;;;;;;6.53;3.65;;;;;;;27.65;38.84;100365.31;5093744;28;20402;-76
2022/08/15 08:59:32;;;;;;;4.53;3.40;;;;;;;27.68;38.55;100367.78;5094883;28;20495;-82
2022/08/15 09:02:08;;;;;;;5.00;3.25;;;;;;;27.54;38.15;100361.59;5093513;28;20074;-80
2022/08/15 09:04:49;;;;;;;7.30;3.80;;;;;;;27.52;38.45;100368.78;5093618;28;20024;-77
2022/08/15 09:07:22;;;;;;;7.70;3.90;;;;;;;27.47;42.35;100369.06;5093435;28;20024;-81
2022/08/15 09:09:51;;;;;;;7.97;3.55;;;;;;;27.35;41.22;100382.97;5093672;28;20031;-84
2022/08/15 09:15:17;;;;;;;7.07;3.85;;;;;;;26.52;45.77;100369.06;5094833;28;20078;-79
2022/08/15 09:17:52;;;;;;;5.75;4.07;;;;;;;26.43;47.25;100373.06;5093664;28;20073;-85
2022/08/15 09:20:37;;;;;;;5.18;4.60;;;;;;;26.49;45.16;100375.38;5093939;28;20073;-86
2022/08/15 09:23:06;;;;;;;6.25;4.20;;;;;;;26.56;46.28;100370.66;5096429;28;20392;-85
2022/08/15 09:25:36;;;;;;;7.63;4.32;;;;;;;26.46;47.97;100379.03;5094705;28;20043;-86
2022/08/15 09:28:11;;;;;;;7.82;4.30;;;;;;;26.33;45.77;100378.00;5096286;28;20051;-83
2022/08/15 09:30:39;;;;;;;5.93;4.28;;;;;;;26.44;47.71;100378.25;5095304;28;20027;-84
2022/08/15 09:33:14;;;;;;;5.47;4.63;;;;;;;26.37;48.57;100384.81;5093807;28;20075;-84
2022/08/15 09:35:56;;;;;;;6.15;4.55;;;;;;;26.31;46.18;100373.75;5094056;28;20070;-83
2022/08/15 09:38:32;;;;;;;5.30;4.30;;;;;;;26.34;46.73;100382.31;5095242;28;20054;-84
2022/08/15 09:41:39;;;;;;;7.68;4.45;;;;;;;26.21;51.67;100382.13;5093597;28;20077;-83
2022/08/15 09:44:17;;;;;;;6.15;4.35;;;;;;;26.32;51.37;100386.00;5093054;28;20028;-83
2022/08/15 09:47:20;;;;;;;7.10;4.68;;;;;;;26.46;46.83;100386.09;5093037;28;20434;-82
2022/08/15 09:50:04;;;;;;;4.55;4.15;;;;;;;26.72;43.40;100389.13;5092788;28;20058;-82
2022/08/15 09:53:05;;;;;;;6.82;4.20;;;;;;;26.82;43.18;100377.13;5093135;28;20486;-82
2022/08/15 09:55:46;;;;;;;7.43;4.63;;;;;;;26.73;46.73;100381.13;5092829;28;20036;-83
2022/08/15 09:58:24;;;;;;;10.02;5.30;;;;;;;26.80;47.66;100384.28;5094183;28;20020;-84
2022/08/15 10:00:52;;;;;;;7.07;4.50;;;;;;;27.07;47.76;100387.19;5094265;28;20020;-85
2022/08/15 10:03:43;;;;;;;4.97;4.47;;;;;;;27.09;47.73;100386.16;5092525;28;20035;-84
2022/08/15 10:06:12;;;;;;;5.30;4.78;;;;;;;26.85;47.21;100396.31;5092641;28;20114;-83
2022/08/15 10:08:53;;;;;;;10.07;4.25;;;;;;;26.82;45.72;100399.09;5092419;28;20016;-85
2022/08/15 10:11:51;;;;;;;6.22;4.57;;;;;;;26.85;47.64;100391.03;5092782;28;20119;-82
2022/08/15 10:14:19;;;;;;;7.43;5.10;;;;;;;27.07;47.56;100397.75;5092288;28;20024;-83
2022/08/15 10:16:48;;;;;;;6.53;4.22;;;;;;;27.03;45.43;100397.06;5092692;28;20055;-83
2022/08/15 10:19:38;;;;;;;8.90;4.38;;;;;;;26.94;49.34;100399.38;5093687;28;20028;-83
2022/08/15 10:22:43;;;;;;;8.30;5.18;;;;;;;26.80;47.52;100405.41;5075075;28;20051;-78
2022/08/15 10:25:20;;;;;;;10.13;4.95;;;;;;;26.83;47.36;100405.25;5026723;28;20083;-77
2022/08/15 10:28:05;;;;;;;11.02;5.80;;;;;;;26.80;47.99;100413.31;5093515;28;20062;-79
2022/08/15 10:30:34;;;;;;;12.45;5.80;;;;;;;26.82;48.12;100408.81;5093310;28;20464;-78
2022/08/15 10:33:01;;;;;;;9.18;5.53;;;;;;;26.93;48.59;100409.06;5091898;28;20379;-79
2022/08/15 10:35:45;;;;;;;8.75;6.00;;;;;;;26.94;48.07;100408.13;5075149;28;20035;-79
2022/08/15 10:38:13;;;;;;;9.68;5.57;;;;;;;26.97;49.01;100415.03;5092109;28;20016;-78
2022/08/15 10:40:55;;;;;;;15.85;6.30;;;;;;;26.84;47.95;100418.34;5092101;28;20024;-78
2022/08/15 10:43:20;;;;;;;9.93;6.13;;;;;;;26.90;48.40;100418.97;5091995;28;20020;-79
2022/08/15 10:45:46;;;;;;;11.05;6.57;;;;;;;26.95;48.53;100422.19;5092039;28;20024;-81
2022/08/15 10:48:37;;;;;;;9.85;6.97;;;;;;;26.97;48.63;100412.38;5092359;28;20024;-81
2022/08/15 10:51:43;;;;;;;10.20;6.80;;;;;;;27.01;47.02;100430.63;5092010;28;20050;-81
2022/08/15 10:54:27;;;;;;;14.02;6.18;;;;;;;26.79;47.74;100441.50;5092275;28;20036;-84
2022/08/15 10:56:55;;;;;;;10.48;5.80;;;;;;;26.36;46.90;100427.09;5091919;28;20395;-83
2022/08/15 10:59:33;;;;;;;10.85;6.00;;;;;;;26.55;46.68;100427.81;5092232;28;20032;-79
2022/08/15 11:02:10;;;;;;;7.45;5.47;;;;;;;26.76;47.60;100432.91;5091834;28;20047;-79
2022/08/15 11:04:38;;;;;;;14.57;6.10;;;;;;;26.78;46.78;100429.22;5092091;28;20542;-78
2022/08/15 11:07:33;;;;;;;11.73;5.40;;;;;;;26.97;47.03;100434.34;5091686;28;20036;-79
2022/08/15 11:10:08;;;;;;;12.00;5.70;;;;;;;27.23;46.60;100430.28;5091646;28;20600;-79
2022/08/15 11:12:36;;;;;;;9.95;5.35;;;;;;;27.18;46.53;100434.97;5092849;28;20078;-79
2022/08/15 11:15:13;;;;;;;8.68;4.85;;;;;;;27.15;45.01;100439.56;5093017;28;20428;-78
2022/08/15 11:17:45;;;;;;;10.52;5.22;;;;;;;26.85;44.87;100440.34;5096664;28;20028;-78
2022/08/15 11:20:17;;;;;;;11.18;4.82;;;;;;;27.04;44.89;100448.06;5095771;28;20353;-84
2022/08/15 11:22:51;;;;;;;9.38;5.15;;;;;;;27.08;44.92;100444.31;5096553;28;20044;-85
2022/08/15 11:25:21;;;;;;;11.23;5.47;;;;;;;27.01;44.61;100445.63;5097062;28;20032;-83
2022/08/15 11:28:04;;;;;;;11.88;5.28;;;;;;;26.67;46.29;100444.81;5095529;28;20418;-84
2022/08/15 11:30:34;;;;;;;12.43;6.00;;;;;;;26.87;45.43;100443.72;5096974;28;20024;-83
2022/08/15 11:33:24;;;;;;;10.43;5.20;;;;;;;27.12;45.89;100451.16;5095471;28;20056;-83
2022/08/15 11:36:07;;;;;;;9.05;5.30;;;;;;;27.08;45.82;100454.88;5095756;28;20034;-83
2022/08/15 11:38:35;;;;;;;;;;;;;;;27.11;45.11;100462.66;5095879;28;20023;-83
2022/08/15 11:41:01;;;;;;;11.13;5.10;;;;;;;27.02;45.41;100465.78;5095528;28;19999;-83
2022/08/15 11:43:27;;;;;;;9.23;5.35;;;;;;;27.08;45.99;100462.81;5096398;28;20052;-78
2022/08/15 11:45:54;;;;;;;10.77;5.00;;;;;;;27.20;44.72;100471.88;5078140;28;20020;-78
2022/08/15 11:48:33;;;;;;;10.35;5.53;;;;;;;27.15;45.27;100472.09;5078160;28;20024;-79
2022/08/15 11:51:08;;;;;;;12.27;5.43;;;;;;;26.88;46.12;100480.59;5095239;28;20027;-84
2022/08/15 11:53:41;;;;;;;12.27;5.22;;;;;;;26.70;46.39;100475.47;5095145;28;20349;-84
2022/08/15 11:56:07;;;;;;;9.80;5.68;;;;;;;26.70;46.31;100481.63;5095674;28;20446;-84
2022/08/15 11:58:36;;;;;;;10.32;5.35;;;;;;;26.81;45.80;100473.97;5095324;28;20171;-85
2022/08/15 12:01:41;;;;;;;9.45;5.50;;;;;;;26.60;46.59;100485.66;5096346;28;20028;-83
2022/08/15 12:04:07;;;;;;;9.95;5.35;;;;;;;26.78;46.51;100492.59;4998003;28;20029;-84